Latest Weather Observations for Wangaratta

IDV60801

Issued at 6:42 pm EST Sunday 14 July 2024 (issued every 10 minutes, with the page automatically refreshed every 10 minutes)

About weather observations | Map of weather stations | Latest weather observations for VIC | Other Formats
Station Details ID: 082138 Name: WANGARATTA AERO Lat: -36.42 Lon: 146.31 Height: 152.6 m
Data from the previous 72 hours. | See also: Recent months at Wangaratta
Date/Time
EST
Temp
°C
App
Temp
°C
Dew
Point
°C
Rel
Hum
%
Delta-T
°C
Wind Press
QNH
hPa
Press
MSL
hPa
Rain since
9am
mm
Dir  Spd
km/h
Gust
km/h
Spd
kts
Gust
kts
14/06:30pm 5.8 2.1 2.6 80 1.3 SW 11 13 6 7 1012.5 1012.8 0.0
14/06:00pm 7.0 3.4 2.9 75 1.7 SW 11 13 6 7 1012.5 1012.8 0.0
14/05:30pm 8.0 3.6 2.7 69 2.2 SW 15 20 8 11 1012.4 1012.7 0.0
14/05:00pm 9.1 3.8 3.1 66 2.6 WSW 20 28 11 15 1012.1 1012.4 0.0
14/04:30pm 9.7 3.9 2.3 60 3.2 WSW 22 30 12 16 1012.0 1012.3 0.0
14/04:00pm 10.3 4.7 3.3 62 3.1 WSW 22 30 12 16 1012.0 1012.3 0.0
14/03:30pm 10.5 5.2 2.8 59 3.3 WSW 20 30 11 16 1012.0 1012.3 0.0
14/03:00pm 11.3 4.8 2.6 55 3.8 WSW 26 37 14 20 1012.0 1012.3 0.0
14/02:30pm 11.4 5.0 3.4 58 3.6 WSW 26 35 14 19 1011.9 1012.2 0.0
14/02:00pm 11.4 5.5 3.7 59 3.4 WSW 24 30 13 16 1012.0 1012.3 0.0
14/01:30pm 11.9 6.1 4.4 60 3.4 WSW 24 32 13 17 1012.1 1012.4 0.0
14/01:00pm 10.6 4.3 3.9 63 3.0 WSW 26 35 14 19 1012.4 1012.7 0.0
14/12:30pm 10.8 4.8 3.6 61 3.2 W 24 33 13 18 1012.8 1013.1 0.0
14/12:00pm 10.5 4.9 3.5 62 3.1 SW 22 30 12 16 1013.4 1013.7 0.0
14/11:30am 9.8 5.3 4.2 68 2.5 W 17 24 9 13 1013.9 1014.2 0.0
14/11:00am 10.1 5.7 4.7 69 2.4 SW 17 26 9 14 1014.3 1014.6 0.0
14/10:30am 9.2 4.2 4.8 74 2.0 WSW 20 26 11 14 1014.6 1014.9 0.0
14/10:00am 8.8 4.3 4.4 74 2.0 WSW 17 20 9 11 1014.7 1015.0 0.0
14/09:30am 7.9 4.3 5.0 82 1.3 SW 13 17 7 9 1014.7 1015.0 0.0
14/09:00am 7.1 3.9 5.3 88 0.8 WSW 11 15 6 8 1014.7 1015.0 0.0
14/08:30am 4.6 3.3 4.0 96 0.3 CALM 0 0 0 0 1014.8 1015.1 0.0
14/08:00am 4.1 2.7 3.7 97 0.2 CALM 0 0 0 0 1014.7 1015.0 0.0
14/07:30am 2.9 0.2 2.6 98 0.1 ESE 6 9 3 5 1014.8 1015.1 0.0
14/07:00am 2.0 0.3 1.6 97 0.2 CALM 0 0 0 0 1014.6 1014.9 0.0
14/06:30am 2.9 0.9 2.3 96 0.2 E 2 6 1 3 1014.5 1014.8 0.0
14/06:00am 5.2 2.5 3.7 90 0.6 WSW 7 9 4 5 1014.2 1014.5 0.0
14/05:30am 6.0 1.5 4.0 87 0.9 WSW 17 22 9 12 1014.0 1014.3 0.0
14/05:00am 5.9 1.4 4.2 89 0.7 WSW 17 19 9 10 1014.1 1014.4 0.0
14/04:30am 3.7 0.0 2.4 91 0.5 WSW 11 13 6 7 1014.1 1014.4 0.0
14/04:00am 5.7 2.0 4.2 90 0.6 WSW 13 17 7 9 1014.4 1014.7 0.0
14/03:30am 5.4 1.6 3.7 89 0.7 SW 13 17 7 9 1014.4 1014.7 0.0
14/03:00am 4.4 0.8 3.1 91 0.5 WSW 11 15 6 8 1014.5 1014.8 0.0
14/02:30am 4.0 0.4 3.0 93 0.4 WSW 11 15 6 8 1014.6 1014.9 0.0
14/02:00am 5.2 1.3 3.5 89 0.7 WSW 13 17 7 9 1014.7 1015.0 0.0
14/01:30am 4.3 0.3 2.7 89 0.7 WSW 13 15 7 8 1014.6 1014.9 0.0
14/01:00am 5.7 1.4 3.5 86 0.9 WSW 15 19 8 10 1014.5 1014.8 0.0
14/12:30am 6.1 1.9 3.9 86 0.9 WSW 15 20 8 11 1014.7 1015.0 0.0
14/12:00am 5.9 2.0 3.6 85 1.0 SW 13 17 7 9 1014.8 1015.1 0.0
 
Date/Time
EST
Temp
°C
App
Temp
°C
Dew
Point
°C
Rel
Hum
%
Delta-T
°C
Wind Press
QNH
hPa
Press
MSL
hPa
Rain since
9am
mm
Dir  Spd
km/h
Gust
km/h
Spd
kts
Gust
kts
13/11:30pm 6.6 1.7 4.3 85 1.0 WSW 19 24 10 13 1015.0 1015.3 0.0
13/11:00pm 6.7 2.6 4.4 85 1.0 WSW 15 22 8 12 1015.2 1015.5 0.0
13/10:30pm 6.9 2.0 4.2 83 1.2 WSW 19 22 10 12 1015.4 1015.7 0.0
13/10:00pm 6.8 3.5 4.3 84 1.1 SW 11 17 6 9 1015.5 1015.8 0.0
13/09:30pm 6.4 3.3 3.7 83 1.2 SW 9 11 5 6 1015.3 1015.6 0.0
13/09:00pm 7.9 3.8 4.5 79 1.5 SW 15 19 8 10 1015.2 1015.5 0.0
13/08:30pm 8.2 3.8 4.6 78 1.6 SW 17 20 9 11 1015.1 1015.4 0.0
13/08:00pm 8.9 4.1 4.5 74 2.0 SW 19 24 10 13 1015.1 1015.4 0.0
13/07:30pm 8.9 3.9 4.5 74 2.0 WSW 20 24 11 13 1015.0 1015.3 0.0
13/07:00pm 9.1 4.0 4.3 72 2.1 WSW 20 26 11 14 1015.0 1015.3 0.0
13/06:30pm 9.5 4.7 4.5 71 2.2 WSW 19 28 10 15 1014.8 1015.1 0.0
13/06:00pm 10.0 5.2 4.6 69 2.4 WSW 19 24 10 13 1014.9 1015.2 0.0
13/05:30pm 10.4 4.6 4.5 67 2.7 WSW 24 32 13 17 1014.5 1014.8 0.0
13/05:00pm 11.1 5.6 4.1 62 3.1 WSW 22 30 12 16 1014.3 1014.6 0.0
13/04:30pm 12.0 6.8 3.8 57 3.7 SW 20 28 11 15 1014.3 1014.6 0.0
13/04:00pm 12.4 6.9 4.1 57 3.8 SW 22 30 12 16 1014.3 1014.6 0.0
13/03:30pm 12.8 7.9 5.0 59 3.6 SW 20 24 11 13 1014.5 1014.8 0.0
13/03:00pm 12.2 6.8 4.4 59 3.6 SW 22 32 12 17 1014.6 1014.9 0.0
13/02:30pm 12.2 7.0 5.6 64 3.1 SW 22 30 12 16 1014.5 1014.8 0.0
13/02:00pm 12.5 8.7 7.6 72 2.4 WSW 17 22 9 12 1014.6 1014.9 0.0
13/01:30pm 12.3 8.0 7.8 74 2.2 SW 20 28 11 15 1014.7 1015.0 0.0
13/01:00pm 12.7 8.5 8.4 75 2.2 WSW 20 28 11 15 1014.8 1015.1 0.0
13/12:30pm 12.1 8.5 8.2 77 1.9 SW 17 24 9 13 1015.1 1015.4 0.0
13/12:00pm 10.8 9.1 8.4 85 1.2 W 7 11 4 6 1015.5 1015.8 0.0
13/11:30am 8.7 7.8 7.6 93 0.5 NNW 2 9 1 5 1016.1 1016.4 0.0
13/11:00am 7.9 7.0 7.8 99 0.0 NNW 2 7 1 4 1016.7 1017.1 0.0
13/10:58am 7.8 6.9 7.7 99 0.0 WNW 2 7 1 4 1016.7 1017.1 0.0
13/10:30am 6.1 4.8 6.0 99 0.0 N 2 6 1 3 1016.9 1017.3 0.0
13/10:00am 5.2 3.0 5.1 99 0.0 SE 6 7 3 4 1017.1 1017.5 0.0
13/09:57am 5.2 3.3 5.1 99 0.0 SE 4 7 2 4 1017.1 1017.5 0.0
13/09:30am 4.2 1.8 4.1 99 0.0 SSE 6 9 3 5 1017.1 1017.5 0.0
13/09:00am 3.5 0.9 3.4 99 0.0 S 6 7 3 4 1016.9 1017.3 0.6
13/08:30am 3.3 1.8 3.2 99 0.0 CALM 0 6 0 3 1016.8 1017.2 0.6
13/08:00am 3.1 0.5 3.0 99 0.0 SW 6 6 3 3 1016.8 1017.2 0.6
13/07:30am 3.1 0.5 3.0 99 0.0 SW 6 7 3 4 1016.7 1017.1 0.6
13/07:00am 3.6 1.1 3.5 99 0.0 WSW 6 7 3 4 1016.6 1017.0 0.6
13/06:30am 4.0 2.3 3.9 99 0.0 SW 2 7 1 4 1016.4 1016.8 0.6
13/06:00am 4.0 2.7 3.9 99 0.0 CALM 0 0 0 0 1016.2 1016.5 0.6
13/05:30am 3.9 1.4 3.8 99 0.0 SSW 6 7 3 4 1016.2 1016.5 0.6
13/05:00am 3.9 1.4 3.8 99 0.0 SSW 6 7 3 4 1016.0 1016.3 0.6
13/04:30am 4.2 1.6 4.1 99 0.0 SSE 7 9 4 5 1015.9 1016.2 0.6
13/04:00am 4.6 2.1 4.5 99 0.0 S 7 11 4 6 1015.9 1016.2 0.6
13/03:30am 5.4 3.0 5.3 99 0.0 S 7 9 4 5 1015.8 1016.1 0.6
13/03:00am 5.3 2.1 5.2 99 0.0 SSE 11 13 6 7 1015.7 1016.0 0.6
13/02:30am 5.9 3.2 5.8 99 0.0 SSW 9 13 5 7 1015.8 1016.1 0.6
13/02:00am 6.5 4.5 6.4 99 0.0 SSE 6 9 3 5 1015.9 1016.2 0.6
13/01:30am 6.6 4.5 6.5 99 0.0 SE 7 11 4 6 1015.9 1016.2 0.6
13/01:00am 6.4 3.8 6.3 99 0.0 SSE 9 11 5 6 1016.0 1016.3 0.4
13/12:30am 5.8 4.8 5.7 99 0.0 CALM 0 0 0 0 1016.1 1016.4 0.4
13/12:00am 4.9 2.4 4.8 99 0.0 E 7 11 4 6 1016.2 1016.5 0.4
 
Date/Time
EST
Temp
°C
App
Temp
°C
Dew
Point
°C
Rel
Hum
%
Delta-T
°C
Wind Press
QNH
hPa
Press
MSL
hPa
Rain since
9am
mm
Dir  Spd
km/h
Gust
km/h
Spd
kts
Gust
kts
12/11:30pm 3.7 1.9 3.6 99 0.0 E 2 7 1 4 1016.2 1016.5 0.4
12/11:00pm 3.4 1.9 3.1 98 0.1 CALM 0 0 0 0 1016.2 1016.5 0.4
12/10:30pm 3.7 2.3 3.4 98 0.1 CALM 0 0 0 0 1016.1 1016.4 0.4
12/10:00pm 4.5 3.2 4.2 98 0.1 CALM 0 2 0 1 1016.2 1016.5 0.4
12/09:30pm 5.3 2.8 5.0 98 0.1 SE 7 11 4 6 1016.2 1016.5 0.4
12/09:00pm 5.6 4.5 5.3 98 0.1 CALM 0 0 0 0 1016.0 1016.3 0.4
12/08:30pm 6.3 5.4 5.9 97 0.2 CALM 0 0 0 0 1015.9 1016.2 0.4
12/08:00pm 7.1 6.3 6.7 97 0.2 CALM 0 0 0 0 1015.7 1016.0 0.4
12/07:47pm 7.6 7.0 7.2 97 0.2 CALM 0 0 0 0 1015.6 1015.9 0.4
12/07:30pm 8.7 8.3 8.3 97 0.2 CALM 0 0 0 0 1015.6 1015.9 0.4
12/07:00pm 8.9 8.6 8.5 97 0.2 CALM 0 0 0 0 1015.6 1015.9 0.4
12/06:30pm 8.9 8.6 8.5 97 0.2 CALM 0 0 0 0 1015.3 1015.6 0.4
12/06:00pm 9.7 9.5 8.9 95 0.4 CALM 0 0 0 0 1015.0 1015.3 0.4
12/05:30pm 10.0 9.8 9.1 94 0.4 CALM 0 0 0 0 1015.0 1015.3 0.4
12/05:00pm 10.3 10.1 9.2 93 0.6 CALM 0 0 0 0 1014.9 1015.2 0.4
12/04:56pm 10.3 10.1 9.2 93 0.6 CALM 0 0 0 0 1014.9 1015.2 0.4
12/04:30pm 10.3 8.8 9.1 92 0.6 SSW 7 9 4 5 1014.8 1015.1 0.4
12/04:00pm 10.3 8.8 9.2 93 0.6 SSW 7 9 4 5 1014.8 1015.1 0.4
12/03:30pm 10.6 8.8 9.4 92 0.6 SW 9 11 5 6 1014.7 1015.0 0.4
12/03:00pm 11.1 10.9 9.2 88 1.0 CALM 0 0 0 0 1014.5 1014.8 0.4
12/02:30pm 10.7 9.7 9.0 89 0.8 N 4 6 2 3 1014.5 1014.8 0.4
12/02:00pm 10.4 9.8 9.0 91 0.7 NNW 2 7 1 4 1014.5 1014.8 0.4
12/01:30pm 10.2 10.1 9.3 94 0.5 CALM 0 0 0 0 1014.7 1015.0 0.4
12/01:00pm 9.8 8.8 8.9 94 0.4 SW 4 6 2 3 1014.9 1015.2 0.4
12/12:30pm 9.6 8.2 9.0 96 0.3 WSW 6 7 3 4 1015.2 1015.5 0.4
12/12:00pm 9.9 9.6 8.8 93 0.5 CALM 0 0 0 0 1015.6 1015.9 0.4
12/11:30am 9.6 9.4 9.0 96 0.3 CALM 0 0 0 0 1015.9 1016.2 0.2
12/11:00am 9.2 8.8 8.4 95 0.4 CALM 0 0 0 0 1016.1 1016.4 0.2
12/10:30am 9.2 7.7 8.4 95 0.4 ENE 6 9 3 5 1016.3 1016.7 0.2
12/10:00am 8.9 7.4 8.5 97 0.2 E 6 7 3 4 1016.4 1016.8 0.2
12/09:30am 8.7 7.2 8.4 98 0.1 E 6 9 3 5 1016.4 1016.8 0.0
12/09:00am 8.5 8.1 8.2 98 0.1 CALM 0 0 0 0 1016.3 1016.7 4.8
12/08:30am 8.4 8.0 8.1 98 0.1 CALM 0 0 0 0 1016.2 1016.5 4.6
12/08:00am 8.3 7.8 8.0 98 0.1 CALM 0 0 0 0 1016.2 1016.5 4.4
12/07:30am 8.2 6.6 7.9 98 0.1 ESE 6 7 3 4 1016.1 1016.4 4.0
12/07:00am 8.2 6.4 7.9 98 0.1 SE 7 7 4 4 1016.2 1016.5 3.6
12/06:30am 8.3 7.8 8.0 98 0.1 CALM 0 0 0 0 1016.2 1016.5 3.2
12/06:00am 8.2 7.7 7.9 98 0.1 CALM 0 0 0 0 1015.8 1016.1 3.0
12/05:30am 8.3 7.8 7.9 97 0.2 CALM 0 0 0 0 1015.8 1016.1 2.8
12/05:00am 8.3 7.4 7.9 97 0.2 NNW 2 6 1 3 1015.7 1016.0 2.6
12/04:30am 8.3 7.4 7.9 97 0.2 N 2 6 1 3 1015.6 1015.9 2.4
12/04:29am 8.2 7.3 7.8 97 0.2 N 2 6 1 3 1015.6 1015.9 2.4
12/04:00am 8.2 7.6 7.6 96 0.3 CALM 0 0 0 0 1015.6 1015.9 1.6
12/03:30am 8.3 7.7 7.5 95 0.4 CALM 0 0 0 0 1015.5 1015.8 1.4
12/03:00am 8.4 7.8 7.6 95 0.4 CALM 0 0 0 0 1015.9 1016.2 1.0
12/02:30am 8.4 7.8 7.6 95 0.4 CALM 0 0 0 0 1016.1 1016.4 0.6
12/02:00am 8.5 7.5 7.4 93 0.5 NE 2 6 1 3 1016.2 1016.5 0.0
12/01:30am 8.8 7.0 7.1 89 0.8 NNW 6 6 3 3 1016.5 1016.9 0.0
12/01:00am 8.8 7.0 7.1 89 0.8 N 6 9 3 5 1016.8 1017.2 0.0
12/12:30am 8.1 7.0 7.0 93 0.5 SSE 2 6 1 3 1016.9 1017.3 0.0
12/12:00am 8.5 6.7 7.1 91 0.7 NE 6 6 3 3 1017.2 1017.6 0.0
 
Date/Time
EST
Temp
°C
App
Temp
°C
Dew
Point
°C
Rel
Hum
%
Delta-T
°C
Wind Press
QNH
hPa
Press
MSL
hPa
Rain since
9am
mm
Dir  Spd
km/h
Gust
km/h
Spd
kts
Gust
kts
11/11:30pm 8.8 8.2 7.3 90 0.7 CALM 0 0 0 0 1017.4 1017.8 0.0
11/11:00pm 8.8 7.8 7.3 90 0.7 S 2 6 1 3 1017.8 1018.2 0.0
11/10:30pm 8.7 7.0 7.5 92 0.6 W 6 9 3 5 1018.2 1018.6 0.0
11/10:00pm 8.7 6.7 7.2 90 0.7 E 7 9 4 5 1018.2 1018.6 0.0
11/09:30pm 8.7 6.9 7.2 90 0.7 SSE 6 7 3 4 1018.5 1018.8 0.0
11/09:00pm 8.8 7.0 7.1 89 0.8 SW 6 7 3 4 1018.5 1018.8 0.0
11/08:30pm 8.7 6.4 7.3 91 0.7 WSW 9 9 5 5 1018.2 1018.6 0.0
11/08:00pm 8.7 6.8 6.7 87 0.9 ENE 6 6 3 3 1017.9 1018.3 0.0
11/07:30pm 8.8 8.1 7.1 89 0.8 CALM 0 0 0 0 1018.2 1018.6 0.0
11/07:00pm 8.4 7.6 6.5 88 0.9 CALM 0 6 0 3 1018.0 1018.4 0.0

Other formats

Comma delimited format used in spreadsheet applications
http://www.bom.gov.au/fwo/IDV60801/IDV60801.94889.axf

JavaScript Object Notation format (JSON) in row-major order
http://www.bom.gov.au/fwo/IDV60801/IDV60801.94889.json

Data quality

Most of these data are generated automatically and are frequently updated. Quality checks on data are not normally performed. It is possible for incorrect values to appear. Refer to information at About Latest Weather Observations and please check the disclaimer before using these data.